Time,TemperatureF,DewpointF,PressureIn,WindDirection,WindDirectionDegrees,WindSpeedMPH,WindSpeedGustMPH,Humidity,HourlyPrecipIn,Conditions,Clouds,dailyrainin,SolarRadiationWatts/m^2,SoftwareType,DateUTC
2013-07-23 00:22:00,76.0,27.0,-100.00,NE,45,6.0,10.0,16,0.00,,,0.00,0.000000,,2013-07-23 06:22:00,
2013-07-23 00:33:00,76.0,27.0,-100.00,NE,45,6.0,10.0,16,0.00,,,0.00,0.000000,,2013-07-23 06:33:00,
2013-07-23 04:11:00,70.0,33.0,-100.00,West,275,2.0,11.0,25,-99.99,,,0.00,0.000000,,2013-07-23 10:11:00,
2013-07-23 05:01:00,69.0,35.0,-100.00,SW,235,1.0,13.0,28,-99.99,,,0.00,0.000000,,2013-07-23 11:01:00,
2013-07-23 05:11:00,69.0,35.0,-100.00,SW,235,1.0,13.0,28,-99.99,,,0.00,0.000000,,2013-07-23 11:11:00,
2013-07-23 06:02:00,68.0,34.0,-100.00,SSW,195,1.0,7.0,28,-99.99,,,0.00,0.000000,,2013-07-23 12:02:00,
2013-07-23 06:11:00,68.0,34.0,-100.00,SSW,195,1.0,7.0,28,-99.99,,,0.00,0.000000,,2013-07-23 12:11:00,
2013-07-23 06:22:00,68.0,34.0,-100.00,SSW,195,1.0,7.0,28,-99.99,,,0.00,0.000000,,2013-07-23 12:22:00,
2013-07-23 06:42:00,67.0,32.0,-100.00,NNE,20,2.0,9.0,27,-99.99,,,0.00,3.000000,,2013-07-23 12:42:00,
2013-07-23 07:22:00,67.0,32.0,-100.00,NNE,20,2.0,9.0,27,-99.99,,,0.00,3.000000,,2013-07-23 13:22:00,
2013-07-23 07:32:00,67.0,32.0,-100.00,NNE,20,2.0,9.0,27,-99.99,,,0.00,3.000000,,2013-07-23 13:32:00,
2013-07-23 08:42:00,74.0,36.0,-100.00,NNE,17,4.0,11.0,25,0.00,,,0.00,234.000000,,2013-07-23 14:42:00,
2013-07-23 09:42:00,79.0,36.0,-100.00,NE,51,4.0,12.0,21,0.00,,,0.00,415.000000,,2013-07-23 15:42:00,
2013-07-23 10:12:00,79.0,36.0,-100.00,NE,51,4.0,12.0,21,0.00,,,0.00,415.000000,,2013-07-23 16:12:00,
2013-07-23 10:22:00,79.0,36.0,-100.00,NE,51,4.0,12.0,21,0.00,,,0.00,415.000000,,2013-07-23 16:22:00,
2013-07-23 10:33:00,79.0,36.0,-100.00,NE,51,4.0,12.0,21,0.00,,,0.00,415.000000,,2013-07-23 16:33:00,
2013-07-23 10:42:00,83.0,36.0,-100.00,NW,317,4.0,13.0,19,0.00,,,0.00,594.000000,,2013-07-23 16:42:00,
2013-07-23 11:11:00,83.0,36.0,-100.00,NW,317,4.0,13.0,19,0.00,,,0.00,594.000000,,2013-07-23 17:11:00,
2013-07-23 11:21:00,83.0,36.0,-100.00,NW,317,4.0,13.0,19,0.00,,,0.00,594.000000,,2013-07-23 17:21:00,
2013-07-23 11:32:00,83.0,36.0,-100.00,NW,317,4.0,13.0,19,0.00,,,0.00,594.000000,,2013-07-23 17:32:00,
2013-07-23 11:42:00,89.0,35.0,-100.00,WNW,299,3.0,13.0,15,0.00,,,0.00,750.000000,,2013-07-23 17:42:00,
2013-07-23 12:02:00,89.0,35.0,-100.00,WNW,299,3.0,13.0,15,0.00,,,0.00,750.000000,,2013-07-23 18:02:00,
2013-07-23 12:11:00,89.0,35.0,-100.00,WNW,299,3.0,13.0,15,0.00,,,0.00,750.000000,,2013-07-23 18:11:00,
2013-07-23 12:24:00,89.0,35.0,-100.00,WNW,299,3.0,13.0,15,0.00,,,0.00,750.000000,,2013-07-23 18:24:00,
2013-07-23 12:33:00,89.0,35.0,-100.00,WNW,299,3.0,13.0,15,0.00,,,0.00,750.000000,,2013-07-23 18:33:00,
2013-07-23 14:22:00,94.0,21.0,-100.00,WSW,252,4.0,12.0,7,0.00,,,0.00,924.000000,,2013-07-23 20:22:00,
2013-07-23 14:42:00,94.0,21.0,-100.00,WSW,253,3.0,14.0,7,0.00,,,0.00,943.000000,,2013-07-23 20:42:00,
2013-07-23 15:04:00,94.0,21.0,-100.00,WSW,253,3.0,14.0,7,0.00,,,0.00,943.000000,,2013-07-23 21:04:00,
2013-07-23 15:13:00,94.0,21.0,-100.00,WSW,253,3.0,14.0,7,0.00,,,0.00,943.000000,,2013-07-23 21:13:00,
2013-07-23 15:22:00,94.0,21.0,-100.00,WSW,253,3.0,14.0,7,0.00,,,0.00,943.000000,,2013-07-23 21:22:00,
2013-07-23 15:33:00,94.0,21.0,-100.00,WSW,253,3.0,14.0,7,0.00,,,0.00,943.000000,,2013-07-23 21:33:00,
2013-07-23 15:42:00,96.0,18.0,-100.00,WSW,246,5.0,13.0,6,0.00,,,0.00,901.000000,,2013-07-23 21:42:00,
2013-07-23 16:03:00,96.0,18.0,-100.00,WSW,246,5.0,13.0,6,0.00,,,0.00,901.000000,,2013-07-23 22:03:00,
2013-07-23 16:11:00,96.0,18.0,-100.00,WSW,246,5.0,13.0,6,0.00,,,0.00,901.000000,,2013-07-23 22:11:00,
2013-07-23 16:23:00,96.0,18.0,-100.00,WSW,246,5.0,13.0,6,0.00,,,0.00,901.000000,,2013-07-23 22:23:00,
2013-07-23 16:33:00,96.0,18.0,-100.00,WSW,246,5.0,13.0,6,0.00,,,0.00,901.000000,,2013-07-23 22:33:00,
2013-07-23 16:42:00,97.0,19.0,-100.00,West,267,5.0,13.0,6,0.00,,,0.00,776.000000,,2013-07-23 22:42:00,
2013-07-23 17:12:00,97.0,19.0,-100.00,West,267,5.0,13.0,6,0.00,,,0.00,776.000000,,2013-07-23 23:12:00,
2013-07-23 17:24:00,97.0,19.0,-100.00,West,267,5.0,13.0,6,0.00,,,0.00,776.000000,,2013-07-23 23:24:00,
2013-07-23 17:34:00,97.0,19.0,-100.00,West,267,5.0,13.0,6,0.00,,,0.00,776.000000,,2013-07-23 23:34:00,
2013-07-23 20:14:00,93.0,16.0,-100.00,NW,313,7.0,15.0,6,0.00,,,0.00,242.000000,,2013-07-24 02:14:00,
2013-07-23 21:42:00,86.0,29.0,-100.00,NNE,32,1.0,7.0,13,0.00,,,0.00,22.000000,,2013-07-24 03:42:00,
2013-07-23 22:11:00,86.0,29.0,-100.00,NNE,32,1.0,7.0,13,0.00,,,0.00,22.000000,,2013-07-24 04:11:00,
2013-07-23 22:22:00,86.0,29.0,-100.00,NNE,32,1.0,7.0,13,0.00,,,0.00,22.000000,,2013-07-24 04:22:00,
2013-07-23 22:32:00,86.0,29.0,-100.00,NNE,32,1.0,7.0,13,0.00,,,0.00,22.000000,,2013-07-24 04:32:00,
2013-07-23 22:42:00,82.0,33.0,-100.00,NNW,327,2.0,7.0,17,-99.99,,,0.00,0.000000,,2013-07-24 04:42:00,
2013-07-23 23:11:00,82.0,33.0,-100.00,NNW,327,2.0,7.0,17,-99.99,,,0.00,0.000000,,2013-07-24 05:11:00,
2013-07-23 23:22:00,82.0,33.0,-100.00,NNW,327,2.0,7.0,17,-99.99,,,0.00,0.000000,,2013-07-24 05:22:00,
2013-07-23 23:32:00,82.0,33.0,-100.00,NNW,327,2.0,7.0,17,-99.99,,,0.00,0.000000,,2013-07-24 05:32:00,
2013-07-23 23:42:00,80.0,31.0,-100.00,East,79,5.0,10.0,17,0.00,,,0.00,0.000000,,2013-07-24 05:42:00,